createdAt,value
2018-06-13T00:00:58.134Z,63.10
2018-06-13T00:03:26.414Z,63.50
2018-06-13T00:05:54.671Z,63.40
2018-06-13T00:08:22.931Z,63.50
2018-06-13T00:10:51.206Z,63.80
2018-06-13T00:13:19.531Z,63.50
2018-06-13T00:15:47.832Z,63.70
2018-06-13T00:18:16.121Z,63.70
2018-06-13T00:20:44.354Z,63.50
2018-06-13T00:23:12.621Z,63.50
2018-06-13T00:25:41.359Z,63.70
2018-06-13T00:28:09.738Z,64.00
2018-06-13T00:30:37.976Z,64.00
2018-06-13T00:33:06.226Z,64.10
2018-06-13T00:35:34.487Z,64.30
2018-06-13T00:38:02.731Z,64.70
2018-06-13T00:40:30.943Z,64.60
2018-06-13T00:42:59.230Z,65.00
2018-06-13T00:45:27.482Z,65.70
2018-06-13T00:47:55.730Z,66.00
2018-06-13T00:50:23.946Z,66.30
2018-06-13T00:52:52.293Z,67.60
2018-06-13T00:55:20.491Z,67.70
2018-06-13T00:57:48.787Z,68.10
2018-06-13T01:00:17.126Z,68.90
2018-06-13T01:02:45.466Z,69.40
2018-06-13T01:05:13.665Z,70.10
2018-06-13T01:07:41.951Z,70.60
2018-06-13T01:10:10.198Z,70.50
2018-06-13T01:12:38.449Z,71.80
2018-06-13T01:15:06.681Z,72.40
2018-06-13T01:17:34.908Z,73.00
2018-06-13T01:20:03.165Z,73.30
2018-06-13T01:22:31.424Z,74.00
2018-06-13T01:24:59.712Z,74.20
2018-06-13T01:27:28.127Z,74.00
2018-06-13T01:29:56.394Z,73.70
2018-06-13T01:32:24.610Z,73.50
2018-06-13T01:34:53.012Z,73.80
2018-06-13T01:37:21.275Z,74.90
2018-06-13T01:39:49.588Z,74.90
2018-06-13T01:42:18.167Z,75.70
2018-06-13T01:44:46.431Z,76.00
2018-06-13T01:47:14.754Z,76.30
2018-06-13T01:49:43.012Z,76.80
2018-06-13T01:52:11.320Z,76.70
2018-06-13T01:54:39.624Z,77.00
2018-06-13T01:59:36.122Z,79.30
2018-06-13T02:02:04.424Z,79.30
2018-06-13T02:04:32.645Z,79.30
2018-06-13T02:07:00.905Z,79.60
2018-06-13T02:09:29.240Z,79.80
2018-06-13T02:11:57.559Z,80.30
2018-06-13T02:14:25.953Z,80.70
2018-06-13T02:16:54.227Z,81.10
2018-06-13T02:19:22.463Z,81.10
2018-06-13T02:21:52.164Z,81.10
2018-06-13T02:24:20.401Z,81.10
2018-06-13T02:26:48.662Z,81.50
2018-06-13T02:31:45.008Z,81.80
2018-06-13T02:34:13.284Z,81.90
2018-06-13T02:36:41.532Z,82.70
2018-06-13T02:39:09.985Z,83.40
2018-06-13T02:41:38.243Z,84.00
2018-06-13T02:44:06.711Z,84.20
2018-06-13T02:46:35.025Z,84.10
2018-06-13T02:49:03.851Z,84.50
2018-06-13T02:51:32.126Z,85.20
2018-06-13T02:54:00.472Z,86.00
2018-06-13T02:56:28.726Z,86.30
2018-06-13T02:58:57.048Z,87.30
2018-06-13T03:01:25.504Z,87.50
2018-06-13T03:03:53.891Z,88.60
2018-06-13T03:06:22.091Z,89.40
2018-06-13T03:08:50.494Z,89.70
2018-06-13T03:11:18.814Z,89.70
2018-06-13T03:13:47.064Z,89.70
2018-06-13T03:16:15.468Z,89.70
2018-06-13T03:18:43.758Z,90.00
2018-06-13T03:21:12.006Z,90.50
2018-06-13T03:23:40.267Z,90.70
2018-06-13T03:26:08.544Z,90.90
2018-06-13T03:31:04.861Z,91.30
2018-06-13T03:33:33.144Z,91.30
2018-06-13T03:36:01.378Z,91.60
2018-06-13T03:38:29.686Z,91.90
2018-06-13T03:40:57.937Z,92.80
2018-06-13T03:43:26.286Z,92.80
2018-06-13T03:45:55.634Z,92.70
2018-06-13T03:48:23.965Z,92.70
2018-06-13T03:50:52.391Z,92.90
2018-06-13T03:53:20.727Z,93.40
2018-06-13T03:55:49.088Z,94.00
2018-06-13T03:58:17.334Z,94.20
2018-06-13T04:00:45.645Z,94.30
2018-06-13T04:03:14.062Z,95.00
2018-06-13T04:05:42.458Z,94.80
2018-06-13T04:08:10.675Z,94.90
2018-06-13T04:10:38.930Z,94.90
2018-06-13T04:13:07.084Z,95.80
2018-06-13T04:15:35.483Z,96.30
2018-06-13T04:18:05.827Z,96.70
2018-06-13T04:20:34.302Z,96.50
2018-06-13T04:23:02.506Z,96.50
2018-06-13T04:25:30.714Z,96.50
2018-06-13T04:27:58.913Z,96.60
2018-06-13T04:30:27.154Z,96.50
2018-06-13T04:32:55.400Z,96.90
2018-06-13T04:35:23.599Z,97.00
2018-06-13T04:37:52.028Z,96.80
2018-06-13T04:42:48.258Z,97.90
2018-06-13T04:45:16.490Z,97.80
2018-06-13T04:47:44.669Z,97.70
2018-06-13T04:50:12.859Z,97.50
2018-06-13T04:52:41.058Z,97.30
2018-06-13T04:55:09.366Z,96.70
2018-06-13T04:57:37.551Z,96.30
2018-06-13T05:00:05.781Z,96.50
2018-06-13T05:02:34.134Z,96.60
2018-06-13T05:05:02.347Z,95.90
2018-06-13T05:07:30.615Z,96.00
2018-06-13T05:09:58.860Z,95.70
2018-06-13T05:12:27.178Z,94.90
2018-06-13T05:14:55.405Z,95.60
2018-06-13T05:17:23.600Z,95.50
2018-06-13T05:19:51.824Z,95.50
2018-06-13T05:22:20.023Z,95.20
2018-06-13T05:24:48.352Z,95.30
2018-06-13T05:27:16.534Z,95.40
2018-06-13T05:29:44.761Z,95.20
2018-06-13T05:32:12.978Z,95.30
2018-06-13T05:34:41.165Z,95.90
2018-06-13T05:37:09.366Z,96.20
2018-06-13T05:41:06.915Z,96.50
2018-06-13T05:46:17.107Z,98.00
2018-06-13T05:48:45.349Z,99.00
2018-06-13T05:51:13.577Z,99.70
2018-06-13T05:53:41.818Z,99.60
2018-06-13T05:56:10.046Z,99.40
2018-06-13T05:58:38.287Z,99.40
2018-06-13T06:01:06.487Z,98.50
2018-06-13T06:03:34.798Z,98.50
2018-06-13T06:06:02.964Z,98.80
2018-06-13T06:08:31.212Z,98.80
2018-06-13T06:10:59.428Z,98.70
2018-06-13T06:13:27.949Z,98.20
2018-06-13T06:15:56.156Z,98.20
2018-06-13T06:18:24.346Z,98.40
2018-06-13T06:20:52.575Z,98.40
2018-06-13T06:23:20.814Z,98.60
2018-06-13T06:25:49.061Z,98.70
2018-06-13T06:28:17.284Z,98.70
2018-06-13T06:30:45.622Z,98.60
2018-06-13T06:33:13.848Z,98.80
2018-06-13T06:35:42.904Z,99.00
2018-06-13T06:38:11.100Z,98.60
2018-06-13T06:40:39.838Z,98.50
2018-06-13T06:43:08.261Z,98.10
2018-06-13T06:45:36.501Z,99.00
2018-06-13T06:48:04.764Z,98.00
2018-06-13T06:50:32.986Z,97.80
2018-06-13T06:53:01.209Z,97.10
2018-06-13T06:55:29.589Z,96.50
2018-06-13T06:57:57.814Z,96.50
2018-06-13T07:00:26.058Z,96.80
2018-06-13T07:02:54.333Z,96.90
2018-06-13T07:05:23.326Z,96.60
2018-06-13T07:07:51.584Z,96.30
2018-06-13T07:10:19.811Z,95.70
2018-06-13T07:12:47.967Z,96.00
2018-06-13T07:15:16.210Z,95.90
2018-06-13T07:17:44.412Z,95.80
2018-06-13T07:20:12.673Z,95.70
2018-06-13T07:22:40.886Z,96.00
2018-06-13T07:25:09.146Z,95.90
2018-06-13T07:27:37.332Z,95.50
2018-06-13T07:30:05.608Z,96.20
2018-06-13T07:35:01.802Z,96.20
2018-06-13T07:37:30.106Z,96.60
2018-06-13T07:39:58.315Z,96.00
2018-06-13T07:42:27.408Z,96.00
2018-06-13T07:44:55.601Z,95.60
2018-06-13T07:47:23.849Z,96.00
2018-06-13T07:49:52.352Z,95.90
2018-06-13T07:52:20.593Z,95.40
2018-06-13T07:54:48.762Z,95.50
2018-06-13T07:57:17.036Z,96.20
2018-06-13T07:59:45.850Z,96.10
2018-06-13T08:02:14.151Z,95.20
2018-06-13T08:04:42.412Z,93.70
2018-06-13T08:07:10.694Z,93.90
2018-06-13T08:09:39.105Z,93.80
2018-06-13T08:12:07.372Z,93.90
2018-06-13T08:14:35.613Z,93.80
2018-06-13T08:17:03.886Z,92.50
2018-06-13T08:19:32.107Z,92.10
2018-06-13T08:22:00.356Z,92.30
2018-06-13T08:24:29.598Z,92.60
2018-06-13T08:26:57.810Z,92.00
2018-06-13T08:29:26.111Z,91.80
2018-06-13T08:31:54.320Z,92.00
2018-06-13T08:34:22.543Z,91.20
2018-06-13T08:36:50.762Z,91.60
2018-06-13T08:39:19.061Z,91.20
2018-06-13T08:41:47.466Z,90.80
2018-06-13T08:44:15.828Z,91.40
2018-06-13T08:46:45.177Z,90.90
2018-06-13T08:49:13.434Z,90.10
2018-06-13T08:51:41.739Z,90.00
2018-06-13T08:54:10.086Z,90.20
2018-06-13T08:56:38.324Z,90.40
2018-06-13T08:59:06.577Z,90.70
2018-06-13T09:01:34.809Z,90.90
2018-06-13T09:04:03.082Z,91.10
2018-06-13T09:06:31.423Z,90.80
2018-06-13T09:08:59.919Z,90.90
2018-06-13T09:11:28.126Z,90.00
2018-06-13T09:13:56.339Z,88.50
2018-06-13T09:16:24.568Z,88.50
2018-06-13T09:18:52.821Z,88.70
2018-06-13T09:21:21.073Z,88.30
2018-06-13T09:23:49.392Z,87.20
2018-06-13T09:26:17.658Z,84.20
2018-06-13T09:28:45.867Z,86.30
2018-06-13T09:31:14.179Z,85.40
2018-06-13T09:33:42.418Z,86.10
2018-06-13T09:36:10.709Z,85.10
2018-06-13T09:38:39.044Z,85.80
2018-06-13T09:41:07.237Z,86.50
2018-06-13T09:43:35.493Z,87.70
2018-06-13T09:46:03.846Z,89.30
2018-06-13T09:48:32.033Z,89.80
2018-06-13T09:51:00.229Z,89.90
2018-06-13T09:53:28.518Z,90.40
2018-06-13T09:55:56.800Z,90.60
2018-06-13T09:58:25.053Z,91.10
2018-06-13T10:00:58.825Z,90.90
2018-06-13T10:03:27.109Z,91.30
2018-06-13T10:05:55.380Z,91.50
2018-06-13T10:08:23.590Z,91.10
2018-06-13T10:10:51.805Z,91.40
2018-06-13T10:13:20.002Z,91.60
2018-06-13T10:15:48.248Z,91.10
2018-06-13T10:18:16.537Z,90.20
2018-06-13T10:20:44.755Z,88.70
2018-06-13T10:23:13.009Z,86.60
2018-06-13T10:25:41.218Z,86.00
2018-06-13T10:28:09.442Z,85.90
2018-06-13T10:30:37.686Z,85.90
2018-06-13T10:33:05.942Z,86.20
2018-06-13T10:35:34.145Z,86.50
2018-06-13T10:38:02.328Z,86.30
2018-06-13T10:40:30.519Z,85.90
2018-06-13T10:45:26.889Z,83.90
2018-06-13T10:47:55.134Z,83.60
2018-06-13T10:50:23.386Z,84.30
2018-06-13T10:52:53.418Z,83.60
2018-06-13T10:55:21.668Z,82.30
2018-06-13T10:57:49.945Z,80.60
2018-06-13T11:00:18.163Z,80.40
2018-06-13T11:02:46.404Z,82.00
2018-06-13T11:05:14.644Z,82.40
2018-06-13T11:07:42.904Z,83.70
2018-06-13T11:10:11.402Z,84.00
2018-06-13T11:12:39.602Z,85.50
2018-06-13T11:15:07.847Z,86.00
2018-06-13T11:17:36.155Z,87.50
2018-06-13T11:20:04.677Z,86.70
2018-06-13T11:22:33.005Z,88.00
2018-06-13T11:25:01.215Z,88.80
2018-06-13T11:27:29.460Z,90.10
2018-06-13T11:29:57.675Z,90.70
2018-06-13T11:32:26.146Z,91.30
2018-06-13T11:35:03.705Z,91.40
2018-06-13T11:37:31.917Z,91.80
2018-06-13T11:40:00.199Z,92.50
2018-06-13T11:42:28.430Z,92.90
2018-06-13T11:44:56.678Z,93.20
2018-06-13T11:47:25.028Z,93.70
2018-06-13T11:49:53.347Z,93.70
2018-06-13T11:52:21.675Z,93.50
2018-06-13T11:54:50.025Z,93.70
2018-06-13T11:57:19.090Z,93.30
2018-06-13T11:59:47.440Z,93.40
2018-06-13T12:02:15.905Z,93.40
2018-06-13T12:04:44.427Z,92.70
2018-06-13T12:07:12.663Z,92.00
2018-06-13T12:09:40.909Z,91.90
2018-06-13T12:12:09.326Z,92.30
2018-06-13T12:14:37.637Z,91.80
2018-06-13T12:17:05.858Z,91.80
2018-06-13T12:19:34.027Z,92.00
2018-06-13T12:22:02.238Z,92.10
2018-06-13T12:24:30.466Z,91.70
2018-06-13T12:26:58.782Z,91.80
2018-06-13T12:29:27.358Z,91.80
2018-06-13T12:31:55.657Z,92.20
2018-06-13T12:34:23.963Z,91.80
2018-06-13T12:36:52.189Z,92.20
2018-06-13T12:39:20.418Z,92.80
2018-06-13T12:41:48.948Z,93.30
2018-06-13T12:44:17.245Z,93.40
2018-06-13T12:46:45.442Z,93.70
2018-06-13T12:49:13.670Z,93.50
2018-06-13T12:51:41.926Z,93.40
2018-06-13T12:54:10.169Z,93.00
2018-06-13T12:56:38.443Z,92.80
2018-06-13T12:59:06.633Z,92.90
2018-06-13T13:01:34.931Z,93.00
2018-06-13T13:04:03.261Z,93.20
2018-06-13T13:06:31.574Z,92.00
2018-06-13T13:09:01.196Z,91.90
2018-06-13T13:11:29.575Z,91.50
2018-06-13T13:13:57.793Z,92.10
2018-06-13T13:16:25.945Z,92.10
2018-06-13T13:18:54.188Z,91.60
2018-06-13T13:21:22.409Z,91.60
2018-06-13T13:23:50.690Z,92.10
2018-06-13T13:26:18.919Z,92.40
2018-06-13T13:28:47.105Z,92.90
2018-06-13T13:31:15.363Z,92.70
2018-06-13T13:36:11.870Z,93.30
2018-06-13T13:38:40.076Z,93.20
2018-06-13T13:41:08.337Z,92.90
2018-06-13T13:43:36.601Z,93.00
2018-06-13T13:46:04.998Z,93.40
2018-06-13T13:48:33.183Z,93.80
2018-06-13T13:51:01.436Z,94.00
2018-06-13T13:53:29.687Z,93.90
2018-06-13T13:55:57.967Z,94.20
2018-06-13T13:58:26.181Z,93.40
2018-06-13T14:00:54.357Z,93.70
2018-06-13T14:03:22.539Z,93.80
2018-06-13T14:05:50.761Z,93.70
2018-06-13T14:08:18.987Z,94.10
2018-06-13T14:10:47.170Z,93.90
2018-06-13T14:13:15.394Z,93.60
2018-06-13T14:15:43.712Z,93.40
2018-06-13T14:18:11.892Z,93.60
2018-06-13T14:20:40.169Z,92.80
2018-06-13T14:23:08.357Z,93.00
2018-06-13T14:25:36.679Z,93.60
2018-06-13T14:28:04.999Z,94.20
2018-06-13T14:30:33.254Z,94.70
2018-06-13T14:33:01.449Z,94.60
2018-06-13T14:35:29.719Z,94.80
2018-06-13T14:37:58.035Z,94.80
2018-06-13T14:40:26.283Z,94.50
2018-06-13T14:42:54.550Z,94.10
2018-06-13T14:45:22.863Z,93.90
2018-06-13T14:47:51.206Z,94.10
2018-06-13T14:50:19.673Z,94.00
2018-06-13T14:52:47.908Z,94.30
2018-06-13T14:55:16.275Z,94.50
2018-06-13T14:57:44.639Z,94.50
2018-06-13T15:00:12.829Z,94.90
2018-06-13T15:02:41.025Z,94.90
2018-06-13T15:05:09.314Z,95.20
2018-06-13T15:07:38.644Z,94.90
2018-06-13T15:10:07.188Z,94.40
2018-06-13T15:12:35.411Z,93.90
2018-06-13T15:15:03.621Z,93.90
2018-06-13T15:17:31.972Z,94.00
2018-06-13T15:22:29.305Z,94.70
2018-06-13T15:24:57.693Z,95.30
2018-06-13T15:27:25.960Z,95.60
2018-06-13T15:29:54.267Z,96.40
2018-06-13T15:32:22.586Z,96.10
2018-06-13T15:34:50.956Z,96.60
2018-06-13T15:37:19.229Z,95.90
2018-06-13T15:39:48.687Z,96.10
2018-06-13T15:42:17.117Z,95.90
2018-06-13T15:44:45.489Z,95.30
2018-06-13T15:47:13.915Z,95.80
2018-06-13T15:49:42.114Z,95.40
2018-06-13T15:52:10.324Z,95.30
2018-06-13T15:57:06.646Z,95.60
2018-06-13T15:59:37.337Z,95.60
2018-06-13T16:02:05.613Z,95.70
2018-06-13T16:04:33.850Z,95.40
2018-06-13T16:07:04.153Z,95.50
2018-06-13T16:09:32.468Z,95.40
2018-06-13T16:12:00.736Z,94.80
2018-06-13T16:14:29.125Z,94.70
2018-06-13T16:16:59.602Z,94.00
2018-06-13T16:19:27.931Z,94.10
2018-06-13T16:21:56.308Z,93.50
2018-06-13T16:24:24.656Z,93.20
2018-06-13T16:26:52.864Z,93.30
2018-06-13T16:29:21.113Z,93.80
2018-06-13T16:31:49.343Z,94.10
2018-06-13T16:34:17.596Z,94.20
2018-06-13T16:36:45.986Z,94.00
2018-06-13T16:39:14.321Z,94.00
2018-06-13T16:41:42.553Z,94.00
2018-06-13T16:44:23.863Z,93.60
2018-06-13T16:47:04.686Z,93.70
2018-06-13T16:49:44.937Z,94.00
2018-06-13T16:52:25.648Z,94.10
2018-06-13T16:55:17.334Z,94.00
2018-06-13T16:57:46.845Z,93.40
2018-06-13T17:00:15.133Z,93.40
2018-06-13T17:02:43.472Z,93.90
2018-06-13T17:05:24.107Z,94.10
2018-06-13T17:08:05.467Z,94.00
2018-06-13T17:10:46.305Z,93.70
2018-06-13T17:13:16.062Z,93.60
2018-06-13T17:15:44.282Z,93.40
2018-06-13T17:18:12.992Z,93.60
2018-06-13T17:20:54.095Z,93.70
2018-06-13T17:23:35.343Z,93.70
2018-06-13T17:26:03.688Z,93.60
2018-06-13T17:28:32.150Z,93.70
2018-06-13T17:31:13.226Z,94.20
2018-06-13T17:33:54.149Z,93.60
2018-06-13T17:36:34.805Z,93.20
2018-06-13T17:39:15.174Z,93.10
2018-06-13T17:41:43.578Z,92.80
2018-06-13T17:44:16.031Z,93.20
2018-06-13T17:46:56.852Z,93.80
2018-06-13T17:49:31.985Z,92.90
2018-06-13T17:52:12.266Z,93.60
2018-06-13T17:54:41.015Z,93.70
2018-06-13T17:57:21.903Z,93.60
2018-06-13T17:59:51.750Z,93.70
2018-06-13T18:02:33.081Z,93.40
2018-06-13T18:05:15.424Z,93.50
2018-06-13T18:07:56.164Z,93.50
2018-06-13T18:10:24.967Z,93.40
2018-06-13T18:13:00.083Z,93.30
2018-06-13T18:15:28.983Z,93.40
2018-06-13T18:18:02.992Z,93.50
2018-06-13T18:20:31.887Z,93.20
2018-06-13T18:23:14.827Z,93.60
2018-06-13T18:25:55.701Z,92.80
2018-06-13T18:28:36.188Z,93.20
2018-06-13T18:31:04.516Z,92.90
2018-06-13T18:33:33.285Z,93.10
2018-06-13T18:38:48.302Z,93.10
2018-06-13T18:41:29.121Z,93.00
2018-06-13T18:44:09.976Z,93.20
2018-06-13T18:46:44.189Z,93.30
2018-06-13T18:49:24.517Z,93.40
2018-06-13T18:51:52.810Z,93.30
2018-06-13T18:54:33.201Z,92.70
2018-06-13T18:57:02.340Z,92.60
2018-06-13T18:59:30.629Z,92.70
2018-06-13T19:02:11.604Z,92.70
2018-06-13T19:04:39.904Z,92.80
2018-06-13T19:07:08.176Z,92.70
2018-06-13T19:09:48.895Z,93.00
2018-06-13T19:12:17.731Z,93.10
2018-06-13T19:14:49.014Z,93.50
2018-06-13T19:17:17.403Z,93.70
2018-06-13T19:19:45.717Z,93.70
2018-06-13T19:22:14.264Z,93.90
2018-06-13T19:24:43.540Z,93.60
2018-06-13T19:27:11.849Z,93.40
2018-06-13T19:29:52.601Z,93.10
2018-06-13T19:32:28.780Z,92.70
2018-06-13T19:34:57.277Z,92.30
2018-06-13T19:37:25.799Z,92.10
2018-06-13T19:39:56.653Z,92.30
2018-06-13T19:42:31.381Z,92.30
2018-06-13T19:45:06.692Z,92.60
2018-06-13T19:47:46.052Z,92.60
2018-06-13T19:50:27.010Z,92.90
2018-06-13T19:53:13.212Z,93.10
2018-06-13T19:56:00.053Z,93.10
2018-06-13T19:58:30.129Z,93.30
2018-06-13T20:00:58.344Z,93.40
2018-06-13T20:03:44.155Z,93.60
2018-06-13T20:06:17.300Z,93.60
2018-06-13T20:08:58.446Z,93.70
2018-06-13T20:11:30.756Z,93.90
2018-06-13T20:14:04.454Z,94.00
2018-06-13T20:16:52.352Z,94.00
2018-06-13T20:19:35.606Z,94.00
2018-06-13T20:22:04.100Z,94.20
2018-06-13T20:24:33.297Z,94.20
2018-06-13T20:27:06.959Z,94.40
2018-06-13T20:29:40.760Z,94.50
2018-06-13T20:32:09.030Z,94.60
2018-06-13T20:34:37.434Z,94.70
2018-06-13T20:37:05.704Z,95.00
2018-06-13T20:39:34.026Z,95.00
2018-06-13T20:42:02.275Z,95.00
2018-06-13T20:44:30.638Z,95.00
2018-06-13T20:46:58.876Z,95.50
2018-06-13T20:49:27.205Z,95.10
2018-06-13T20:51:57.197Z,95.10
2018-06-13T20:54:38.527Z,95.00
2018-06-13T20:57:19.176Z,95.00
2018-06-13T20:59:47.476Z,94.70
2018-06-13T21:02:17.073Z,94.50
2018-06-13T21:04:57.871Z,94.30
2018-06-13T21:07:38.450Z,94.30
2018-06-13T21:10:06.855Z,94.40
2018-06-13T21:12:47.264Z,94.00
2018-06-13T21:15:18.848Z,93.90
2018-06-13T21:17:47.250Z,94.10
2018-06-13T21:20:27.917Z,94.10
2018-06-13T21:22:56.410Z,93.70
2018-06-13T21:27:53.044Z,93.60
2018-06-13T21:30:34.909Z,93.70
2018-06-13T21:33:03.214Z,93.70
2018-06-13T21:35:43.480Z,93.90
2018-06-13T21:38:24.057Z,93.80
2018-06-13T21:40:52.397Z,93.80
2018-06-13T21:43:32.641Z,93.80
2018-06-13T21:46:02.016Z,93.50
2018-06-13T21:48:43.245Z,93.90
2018-06-13T21:51:11.496Z,94.10
2018-06-13T21:53:41.374Z,94.00
2018-06-13T21:56:09.688Z,93.80
2018-06-13T21:58:50.391Z,94.00
2018-06-13T22:01:31.132Z,93.80
2018-06-13T22:04:11.869Z,94.00
2018-06-13T22:06:40.187Z,93.70
2018-06-13T22:09:20.487Z,93.70
2018-06-13T22:12:01.361Z,93.50
2018-06-13T22:14:42.254Z,93.00
2018-06-13T22:17:22.687Z,92.90
2018-06-13T22:19:50.941Z,92.80
2018-06-13T22:22:31.432Z,93.20
2018-06-13T22:25:11.906Z,93.60
2018-06-13T22:27:40.186Z,93.40
2018-06-13T22:30:20.478Z,93.30
2018-06-13T22:32:48.804Z,93.40
2018-06-13T22:35:17.052Z,93.20
2018-06-13T22:37:57.631Z,93.00
2018-06-13T22:40:38.460Z,93.10
2018-06-13T22:43:18.924Z,93.40
2018-06-13T22:45:59.568Z,93.90
2018-06-13T22:48:40.180Z,93.40
2018-06-13T22:51:08.393Z,93.20
2018-06-13T22:53:48.561Z,93.10
2018-06-13T22:56:29.489Z,93.40
2018-06-13T22:59:09.842Z,93.00
2018-06-13T23:01:38.055Z,93.40
2018-06-13T23:04:18.326Z,93.20
2018-06-13T23:06:46.578Z,93.10
2018-06-13T23:09:26.871Z,92.70
2018-06-13T23:12:07.646Z,92.60
2018-06-13T23:17:09.590Z,92.60
2018-06-13T23:19:38.061Z,92.40
2018-06-13T23:22:18.978Z,92.20
2018-06-13T23:24:48.245Z,92.20
2018-06-13T23:27:28.540Z,91.90
2018-06-13T23:30:09.168Z,92.50
2018-06-13T23:32:37.454Z,91.90
2018-06-13T23:35:17.656Z,91.20
2018-06-13T23:37:58.299Z,91.20
2018-06-13T23:40:26.620Z,91.20
2018-06-13T23:43:07.144Z,91.00
2018-06-13T23:45:47.909Z,91.30
2018-06-13T23:48:28.856Z,90.70
2018-06-13T23:50:59.702Z,90.90
2018-06-13T23:53:40.451Z,91.00
2018-06-13T23:56:21.402Z,91.00
2018-06-13T23:58:50.581Z,90.80
